Time;durP1;ratioP1;P1;durP2;ratioP2;P2;SDS_P1;SDS_P2;PMS_P1;PMS_P2;Temp;Humidity;BMP_temperature;BMP_pressure;BME280_temperature;BME280_humidity;BME280_pressure;Samples;Min_cycle;Max_cycle;Signal;HPM_P1;HPM_P2
2020/12/04 00:00:24;;;;;;;0.73;0.38;;;18.00;52.40;;;;;;5092150;28;20122;-54
2020/12/04 00:02:53;;;;;;;1.05;0.20;;;18.00;52.40;;;;;;5085716;28;20032;-48
2020/12/04 00:05:20;;;;;;;0.60;0.30;;;18.00;52.20;;;;;;5081022;28;20141;-51
2020/12/04 00:07:46;;;;;;;1.83;0.38;;;18.00;52.30;;;;;;5089978;28;20456;-54
2020/12/04 00:10:13;;;;;;;0.85;0.20;;;18.00;52.20;;;;;;5090233;28;20086;-51
2020/12/04 00:12:40;;;;;;;1.73;0.22;;;18.00;52.10;;;;;;5079153;28;20105;-52
2020/12/04 00:15:08;;;;;;;1.27;0.20;;;17.90;52.00;;;;;;5087359;28;20044;-55
2020/12/04 00:17:35;;;;;;;1.35;0.20;;;17.90;52.00;;;;;;5091773;28;20130;-50
2020/12/04 00:20:03;;;;;;;2.20;0.28;;;17.90;51.90;;;;;;5091979;28;20112;-55
2020/12/04 00:22:29;;;;;;;2.03;0.77;;;17.90;51.80;;;;;;5105792;28;20053;-50
2020/12/04 00:24:56;;;;;;;0.60;0.20;;;17.90;51.70;;;;;;5074415;28;20041;-51
2020/12/04 00:27:23;;;;;;;2.05;0.10;;;17.90;51.60;;;;;;5089231;28;20105;-52
2020/12/04 00:29:50;;;;;;;0.98;0.20;;;17.90;51.70;;;;;;5085699;28;20036;-50
2020/12/04 00:32:17;;;;;;;0.75;0.20;;;17.90;51.80;;;;;;5080144;28;20067;-50
2020/12/04 00:34:45;;;;;;;1.33;0.10;;;17.90;51.70;;;;;;5074405;28;20043;-50
2020/12/04 00:37:12;;;;;;;1.83;0.10;;;17.80;51.70;;;;;;5085604;28;20059;-53
2020/12/04 00:39:39;;;;;;;4.70;0.30;;;17.90;51.80;;;;;;5078950;28;20043;-48
2020/12/04 00:42:07;;;;;;;1.10;0.22;;;17.80;51.70;;;;;;5086704;28;20052;-51
2020/12/04 00:44:33;;;;;;;1.85;0.20;;;17.80;51.90;;;;;;5088344;28;20748;-49
2020/12/04 00:47:01;;;;;;;0.77;0.22;;;17.80;51.90;;;;;;5091383;28;20055;-49
2020/12/04 00:49:29;;;;;;;1.25;0.13;;;17.80;51.80;;;;;;5088556;28;20093;-53
2020/12/04 00:51:57;;;;;;;5.93;0.10;;;17.80;51.80;;;;;;5086272;28;20135;-48
2020/12/04 00:54:25;;;;;;;0.45;0.10;;;17.80;51.80;;;;;;5089798;28;20090;-52
2020/12/04 00:56:51;;;;;;;2.13;0.68;;;17.70;51.60;;;;;;5090991;28;20101;-48
2020/12/04 00:59:27;;;;;;;2.10;0.20;;;17.80;51.60;;;;;;5089782;28;20046;-50
2020/12/04 01:01:54;;;;;;;0.80;0.20;;;17.80;51.40;;;;;;5091220;28;20055;-49
2020/12/04 01:04:21;;;;;;;0.30;0.10;;;17.80;51.60;;;;;;5089377;28;20514;-49
2020/12/04 01:06:47;;;;;;;1.20;0.20;;;17.70;51.50;;;;;;5089876;28;20556;-51
2020/12/04 01:09:15;;;;;;;1.00;0.10;;;17.70;51.50;;;;;;5081654;28;20041;-53
2020/12/04 01:11:41;;;;;;;0.88;0.10;;;17.70;52.10;;;;;;5083392;28;20050;-53
2020/12/04 01:14:08;;;;;;;0.98;0.20;;;17.70;51.50;;;;;;5089585;28;20052;-51
2020/12/04 01:16:35;;;;;;;1.88;0.20;;;17.70;51.50;;;;;;5089717;28;20421;-50
2020/12/04 01:19:01;;;;;;;1.38;0.10;;;17.70;51.40;;;;;;5075226;28;20048;-52
2020/12/04 01:21:28;;;;;;;0.20;0.10;;;17.70;51.20;;;;;;5088895;28;20052;-50
2020/12/04 01:23:55;;;;;;;1.48;0.10;;;17.70;51.00;;;;;;5091207;28;20040;-53
2020/12/04 01:26:22;;;;;;;0.20;0.10;;;17.60;50.90;;;;;;5091339;28;20047;-49
2020/12/04 01:28:48;;;;;;;1.08;0.10;;;17.60;50.70;;;;;;5089848;28;20723;-51
2020/12/04 01:31:16;;;;;;;1.05;0.10;;;17.70;50.70;;;;;;5072632;28;20105;-52
2020/12/04 01:33:43;;;;;;;0.20;0.03;;;17.60;50.60;;;;;;5077832;28;20140;-49
2020/12/04 01:36:09;;;;;;;3.15;0.20;;;17.60;50.50;;;;;;5085168;28;20048;-48
2020/12/04 01:38:36;;;;;;;1.45;0.10;;;17.60;50.40;;;;;;5090855;28;20111;-51
2020/12/04 01:41:04;;;;;;;0.13;0.10;;;17.60;50.30;;;;;;5091226;28;20115;-50
2020/12/04 01:43:31;;;;;;;1.08;0.10;;;17.60;50.20;;;;;;5088927;28;20130;-48
2020/12/04 01:45:59;;;;;;;0.25;0.00;;;17.60;50.10;;;;;;5091219;28;20101;-52
2020/12/04 01:48:26;;;;;;;0.10;0.08;;;17.60;49.90;;;;;;5079865;28;20432;-53
2020/12/04 01:50:53;;;;;;;4.07;0.00;;;17.60;49.80;;;;;;5084220;28;20115;-49
2020/12/04 01:53:20;;;;;;;0.00;0.00;;;17.60;49.70;;;;;;5089023;28;20570;-50
2020/12/04 01:55:47;;;;;;;0.10;0.10;;;17.60;49.40;;;;;;5073842;28;20054;-52
2020/12/04 01:58:16;;;;;;;0.57;0.00;;;17.50;49.20;;;;;;5073401;28;20055;-48
2020/12/04 02:00:45;;;;;;;1.45;0.10;;;17.50;49.40;;;;;;5077416;28;20052;-49
2020/12/04 02:03:12;;;;;;;0.10;0.00;;;17.50;49.20;;;;;;5086748;28;20080;-47
2020/12/04 02:05:43;;;;;;;0.10;0.00;;;17.50;49.20;;;;;;5090019;28;20052;-48
2020/12/04 02:08:20;;;;;;;6.75;0.10;;;17.50;49.30;;;;;;5089398;28;20053;-48
2020/12/04 02:10:52;;;;;;;0.30;0.25;;;17.50;49.30;;;;;;5075058;28;20048;-50
2020/12/04 02:13:20;;;;;;;1.42;0.00;;;17.50;49.20;;;;;;5088425;28;20071;-48
2020/12/04 02:15:47;;;;;;;0.63;0.50;;;17.50;49.80;;;;;;5090958;28;20071;-53
2020/12/04 02:18:15;;;;;;;0.10;0.00;;;17.50;49.10;;;;;;5090473;28;20048;-52
2020/12/04 02:20:42;;;;;;;0.17;0.00;;;17.50;49.10;;;;;;5090399;28;20541;-50
2020/12/04 02:23:12;;;;;;;0.25;0.00;;;17.50;49.20;;;;;;5089195;28;20060;-51
2020/12/04 02:25:38;;;;;;;0.00;0.00;;;17.40;49.00;;;;;;5073350;28;20047;-50
2020/12/04 02:28:05;;;;;;;0.08;0.00;;;17.40;49.10;;;;;;5089842;28;20117;-48
2020/12/04 02:30:34;;;;;;;0.10;0.00;;;17.40;49.10;;;;;;5090500;28;20051;-49
2020/12/04 02:33:01;;;;;;;0.00;0.00;;;17.40;49.20;;;;;;5086905;28;20183;-50
2020/12/04 02:35:27;;;;;;;0.00;0.00;;;17.40;49.10;;;;;;5084083;28;20048;-50
2020/12/04 02:37:55;;;;;;;3.13;0.00;;;17.40;49.10;;;;;;5094445;28;20039;-48
2020/12/04 02:40:22;;;;;;;0.25;0.08;;;17.40;49.30;;;;;;5092340;28;20047;-51
2020/12/04 02:42:48;;;;;;;0.10;0.00;;;17.40;49.30;;;;;;5093907;28;20105;-50
2020/12/04 02:45:15;;;;;;;0.40;0.00;;;17.40;49.20;;;;;;5094295;28;20044;-53
2020/12/04 02:47:42;;;;;;;0.00;0.00;;;17.40;49.20;;;;;;5089709;28;20546;-51
2020/12/04 02:50:09;;;;;;;0.85;0.00;;;17.40;49.00;;;;;;5081434;28;20391;-48
2020/12/04 02:52:36;;;;;;;0.00;0.00;;;17.40;49.20;;;;;;5092777;28;20050;-49
2020/12/04 02:55:03;;;;;;;0.00;0.00;;;17.40;49.20;;;;;;5077871;28;20512;-49
2020/12/04 02:57:31;;;;;;;0.00;0.00;;;17.30;49.80;;;;;;5092506;28;20059;-50
2020/12/04 02:59:58;;;;;;;0.60;0.00;;;17.40;49.20;;;;;;5094044;28;20048;-50
2020/12/04 03:02:24;;;;;;;0.28;0.28;;;17.30;49.20;;;;;;5091534;28;20491;-49
2020/12/04 03:04:51;;;;;;;0.00;0.00;;;17.30;49.10;;;;;;5076741;28;20055;-53
2020/12/04 03:07:17;;;;;;;0.00;0.00;;;17.30;49.10;;;;;;5091858;28;20087;-49
2020/12/04 03:09:44;;;;;;;0.47;0.00;;;17.30;49.10;;;;;;5080635;28;20057;-53
2020/12/04 03:12:11;;;;;;;0.00;0.00;;;17.30;49.70;;;;;;5081037;28;20068;-52
2020/12/04 03:14:38;;;;;;;0.00;0.00;;;17.30;49.10;;;;;;5084256;28;20067;-49
2020/12/04 03:17:04;;;;;;;0.00;0.00;;;17.30;49.10;;;;;;5092897;28;20557;-49
2020/12/04 03:19:31;;;;;;;0.25;0.00;;;17.30;49.10;;;;;;5091771;28;20048;-51
2020/12/04 03:21:58;;;;;;;0.10;0.00;;;17.20;49.00;;;;;;5077610;28;20045;-49
2020/12/04 03:24:24;;;;;;;0.00;0.00;;;17.20;49.10;;;;;;5090603;28;20055;-52
2020/12/04 03:26:51;;;;;;;0.00;0.00;;;17.20;49.20;;;;;;5092980;28;20118;-51
2020/12/04 03:29:18;;;;;;;0.45;0.00;;;17.20;49.30;;;;;;5092922;28;20071;-49
2020/12/04 03:31:45;;;;;;;0.00;0.00;;;17.30;49.30;;;;;;5076244;28;20124;-48
2020/12/04 03:34:11;;;;;;;0.63;0.00;;;17.20;49.30;;;;;;5091148;28;20089;-48
2020/12/04 03:36:38;;;;;;;0.30;0.00;;;17.20;49.30;;;;;;5092653;28;20063;-51
2020/12/04 03:39:04;;;;;;;0.00;0.00;;;17.20;49.40;;;;;;5084789;28;20102;-49
2020/12/04 03:41:31;;;;;;;0.25;0.00;;;17.20;49.30;;;;;;5079645;28;20503;-48
2020/12/04 03:43:57;;;;;;;2.08;0.00;;;17.20;49.20;;;;;;5077644;28;20860;-50
2020/12/04 03:46:25;;;;;;;0.10;0.00;;;17.20;49.30;;;;;;5091044;28;20128;-48
2020/12/04 03:48:51;;;;;;;0.03;0.00;;;17.20;49.20;;;;;;5093683;28;20056;-50
2020/12/04 03:51:18;;;;;;;0.00;0.00;;;17.10;49.10;;;;;;5090239;28;20527;-50
2020/12/04 03:53:46;;;;;;;0.00;0.00;;;17.10;49.10;;;;;;5092832;28;20413;-48
2020/12/04 03:56:13;;;;;;;0.00;0.00;;;17.10;49.20;;;;;;5093076;28;20055;-48
2020/12/04 03:58:40;;;;;;;0.30;0.00;;;17.20;49.10;;;;;;5091562;28;20076;-48
2020/12/04 04:01:06;;;;;;;0.43;0.00;;;17.10;49.10;;;;;;5076016;28;20131;-49
2020/12/04 04:03:33;;;;;;;0.00;0.00;;;17.10;49.00;;;;;;5086264;28;20052;-48
2020/12/04 04:06:00;;;;;;;0.00;0.00;;;17.10;48.90;;;;;;5083095;28;20040;-47
2020/12/04 04:08:26;;;;;;;0.00;0.00;;;17.10;48.90;;;;;;5089049;28;20047;-49
2020/12/04 04:10:53;;;;;;;0.05;0.05;;;17.10;48.90;;;;;;5092777;28;20128;-49
2020/12/04 04:13:20;;;;;;;0.00;0.00;;;17.10;48.90;;;;;;5090145;28;20044;-50
2020/12/04 04:15:46;;;;;;;0.00;0.00;;;17.10;48.90;;;;;;5093197;28;20750;-49
2020/12/04 04:18:13;;;;;;;2.33;0.00;;;17.10;49.50;;;;;;5092450;28;20131;-52
2020/12/04 04:20:41;;;;;;;0.00;0.00;;;17.10;49.20;;;;;;5088131;28;20036;-49
2020/12/04 04:23:07;;;;;;;0.00;0.00;;;17.10;49.20;;;;;;5078320;28;20056;-48
2020/12/04 04:25:34;;;;;;;0.00;0.00;;;17.00;49.20;;;;;;5090626;28;20174;-48
2020/12/04 04:28:00;;;;;;;0.00;0.00;;;17.00;49.30;;;;;;5092658;28;20541;-47
2020/12/04 04:30:27;;;;;;;0.00;0.00;;;17.00;49.20;;;;;;5081232;28;20064;-51
2020/12/04 04:32:53;;;;;;;0.00;0.00;;;17.00;49.30;;;;;;5085469;28;20080;-49
2020/12/04 04:35:20;;;;;;;0.00;0.00;;;17.00;49.40;;;;;;5092122;28;20128;-47
2020/12/04 04:37:47;;;;;;;0.00;0.00;;;17.00;49.40;;;;;;5087877;28;20177;-52
2020/12/04 04:40:14;;;;;;;0.00;0.00;;;17.00;49.40;;;;;;5090466;28;20093;-50
2020/12/04 04:42:40;;;;;;;0.00;0.00;;;17.00;49.40;;;;;;5091973;28;20044;-50
2020/12/04 04:45:07;;;;;;;0.05;0.00;;;17.00;49.50;;;;;;5091886;28;20048;-51
2020/12/04 04:47:38;;;;;;;0.00;0.00;;;17.00;49.60;;;;;;5088707;28;20204;-50
2020/12/04 04:50:04;;;;;;;0.05;0.00;;;17.00;49.60;;;;;;5074679;28;20055;-49
2020/12/04 04:52:34;;;;;;;0.40;0.00;;;16.90;49.50;;;;;;5088359;28;20466;-50
2020/12/04 04:55:02;;;;;;;0.00;0.00;;;17.00;49.60;;;;;;5087589;28;20072;-48
2020/12/04 04:57:30;;;;;;;0.00;0.00;;;16.90;49.50;;;;;;5091842;28;20051;-48
2020/12/04 04:59:56;;;;;;;0.00;0.00;;;16.90;49.50;;;;;;5084980;28;20037;-49
2020/12/04 05:02:23;;;;;;;0.00;0.00;;;16.90;49.50;;;;;;5080806;28;20468;-48
2020/12/04 05:04:51;;;;;;;0.85;0.00;;;17.00;49.40;;;;;;5092241;28;20040;-48
2020/12/04 05:07:25;;;;;;;0.00;0.00;;;17.00;49.40;;;;;;5089809;28;20075;-53
2020/12/04 05:09:52;;;;;;;0.00;0.00;;;17.00;49.40;;;;;;5092076;28;20051;-49
2020/12/04 05:12:19;;;;;;;0.00;0.00;;;16.90;49.30;;;;;;5091606;28;20059;-49
2020/12/04 05:14:46;;;;;;;1.88;0.00;;;16.90;49.20;;;;;;5091337;28;20051;-48
2020/12/04 05:17:13;;;;;;;0.15;0.00;;;17.00;49.30;;;;;;5091764;28;20098;-50
2020/12/04 05:19:42;;;;;;;0.10;0.00;;;16.90;49.20;;;;;;5090378;28;20063;-51
2020/12/04 05:22:13;;;;;;;0.00;0.00;;;16.90;49.20;;;;;;5090605;28;20072;-49
2020/12/04 05:24:41;;;;;;;0.00;0.00;;;16.90;49.20;;;;;;5078405;28;20052;-47
2020/12/04 05:27:28;;;;;;;0.00;0.00;;;16.90;49.30;;;;;;5086559;28;20442;-48
2020/12/04 05:29:56;;;;;;;0.00;0.00;;;16.90;49.10;;;;;;5091502;28;20040;-48
2020/12/04 05:32:23;;;;;;;0.47;0.00;;;16.90;49.20;;;;;;5090106;28;20064;-49
2020/12/04 05:34:50;;;;;;;0.00;0.00;;;16.90;49.10;;;;;;5089483;28;20051;-50
2020/12/04 05:37:19;;;;;;;0.00;0.00;;;16.90;49.10;;;;;;5089502;28;20089;-52
2020/12/04 05:39:48;;;;;;;0.00;0.00;;;16.90;49.20;;;;;;5090623;28;20126;-52
2020/12/04 05:42:32;;;;;;;0.57;0.32;;;16.90;49.10;;;;;;5089331;28;20534;-48
2020/12/04 05:44:59;;;;;;;0.10;0.00;;;16.90;49.00;;;;;;5104378;27;20036;-51
2020/12/04 05:47:36;;;;;;;0.00;0.00;;;16.90;49.00;;;;;;5090495;28;20043;-52
2020/12/04 05:50:05;;;;;;;0.00;0.00;;;16.90;48.90;;;;;;5089573;28;20047;-51
2020/12/04 05:52:34;;;;;;;0.00;0.00;;;16.90;48.60;;;;;;5088841;28;20509;-53
2020/12/04 05:55:02;;;;;;;0.00;0.00;;;16.90;48.60;;;;;;5087631;28;20783;-50
2020/12/04 05:57:29;;;;;;;0.00;0.00;;;16.90;48.60;;;;;;5089962;28;20064;-50
2020/12/04 05:59:57;;;;;;;0.60;0.00;;;16.90;48.50;;;;;;5089820;28;20506;-53
2020/12/04 06:02:23;;;;;;;0.00;0.00;;;16.90;48.50;;;;;;5090607;28;20045;-49
2020/12/04 06:04:52;;;;;;;0.00;0.00;;;16.90;48.30;;;;;;5090542;28;20086;-49
2020/12/04 06:07:24;;;;;;;0.00;0.00;;;16.90;48.20;;;;;;5087220;28;20043;-49
2020/12/04 06:09:55;;;;;;;0.00;0.00;;;16.90;48.30;;;;;;5090724;28;20036;-54
2020/12/04 06:12:21;;;;;;;0.85;0.52;;;16.90;48.30;;;;;;5090521;28;20086;-50
2020/12/04 06:14:48;;;;;;;0.20;0.00;;;16.80;48.20;;;;;;5090802;28;20113;-49
2020/12/04 06:17:15;;;;;;;0.55;0.00;;;16.90;48.20;;;;;;5088213;28;20571;-51
2020/12/04 06:19:43;;;;;;;0.85;0.00;;;16.80;48.10;;;;;;5090232;28;20039;-49
2020/12/04 06:22:11;;;;;;;1.83;0.00;;;16.80;48.00;;;;;;5092644;28;20044;-50
2020/12/04 06:25:00;;;;;;;2.05;0.00;;;16.80;48.00;;;;;;5089770;28;20043;-50
2020/12/04 06:27:42;;;;;;;0.00;0.00;;;16.90;48.30;;;;;;5089222;28;20040;-49
2020/12/04 06:30:10;;;;;;;0.00;0.00;;;16.80;48.10;;;;;;5089817;28;20044;-54
2020/12/04 06:32:41;;;;;;;0.30;0.00;;;16.80;48.00;;;;;;5089872;28;20231;-52
2020/12/04 06:35:09;;;;;;;0.45;0.00;;;16.80;47.80;;;;;;5090193;28;20054;-54
2020/12/04 06:37:38;;;;;;;0.00;0.00;;;16.80;47.70;;;;;;5088498;28;20060;-52
2020/12/04 06:40:25;;;;;;;0.10;0.05;;;16.80;48.20;;;;;;5089745;28;20134;-53
2020/12/04 06:42:52;;;;;;;;;;;16.80;47.70;;;;;;5090184;28;20055;-51
2020/12/04 06:45:18;;;;;;;0.00;0.00;;;16.80;47.80;;;;;;5090194;28;19983;-51
2020/12/04 06:48:09;;;;;;;0.00;0.00;;;16.70;47.90;;;;;;5089868;28;20109;-48
2020/12/04 06:50:40;;;;;;;3.20;0.00;;;16.80;47.90;;;;;;5090130;28;20036;-48
2020/12/04 06:53:08;;;;;;;0.00;0.00;;;16.80;48.10;;;;;;5090598;28;20450;-48
2020/12/04 06:55:36;;;;;;;1.77;0.00;;;16.70;47.70;;;;;;5088446;28;20036;-53
2020/12/04 06:58:03;;;;;;;1.58;0.00;;;16.80;47.80;;;;;;5090636;28;20056;-51
2020/12/04 07:00:30;;;;;;;0.80;0.00;;;16.70;47.70;;;;;;5090130;28;20050;-51
2020/12/04 07:02:59;;;;;;;0.32;0.00;;;16.80;47.80;;;;;;5089018;28;20063;-48
2020/12/04 07:05:27;;;;;;;0.00;0.00;;;16.80;47.70;;;;;;5088488;28;20564;-49
2020/12/04 07:08:02;;;;;;;0.47;0.00;;;16.80;47.60;;;;;;5073607;28;20411;-49
2020/12/04 07:10:31;;;;;;;0.15;0.00;;;16.80;47.50;;;;;;5070419;28;20040;-52
2020/12/04 07:13:02;;;;;;;2.28;0.00;;;16.80;47.50;;;;;;5090892;28;20050;-48
2020/12/04 07:15:29;;;;;;;0.00;0.00;;;16.80;47.50;;;;;;5090219;28;20536;-47
2020/12/04 07:17:57;;;;;;;1.27;0.00;;;16.80;47.50;;;;;;5084173;28;20056;-49
2020/12/04 07:20:32;;;;;;;0.20;0.00;;;16.80;47.60;;;;;;5082622;28;20039;-48
2020/12/04 07:22:59;;;;;;;0.00;0.00;;;16.80;47.60;;;;;;5092471;28;20043;-50
2020/12/04 07:25:26;;;;;;;0.03;0.00;;;16.80;47.50;;;;;;5090220;28;20091;-49
2020/12/04 07:27:55;;;;;;;1.17;0.00;;;16.80;47.30;;;;;;5093433;28;20098;-48
2020/12/04 07:30:25;;;;;;;0.00;0.00;;;16.80;47.40;;;;;;5093452;28;20131;-48
2020/12/04 07:32:53;;;;;;;0.10;0.00;;;16.80;47.40;;;;;;5090894;28;20032;-47
2020/12/04 07:35:23;;;;;;;0.20;0.00;;;16.80;47.40;;;;;;5093765;28;20040;-51
2020/12/04 07:37:49;;;;;;;0.00;0.00;;;16.80;47.40;;;;;;5077677;28;20063;-48
2020/12/04 07:40:17;;;;;;;3.03;0.00;;;16.80;47.30;;;;;;5087440;28;20044;-49
2020/12/04 07:42:44;;;;;;;1.08;0.10;;;16.80;47.20;;;;;;5080558;28;20052;-48
2020/12/04 07:45:15;;;;;;;0.80;0.20;;;16.80;47.00;;;;;;5080627;28;20074;-48
2020/12/04 07:47:42;;;;;;;0.17;0.17;;;16.80;46.80;;;;;;5080231;28;20040;-48
2020/12/04 07:50:10;;;;;;;0.20;0.10;;;16.80;46.80;;;;;;5080308;28;20082;-48
2020/12/04 07:52:49;;;;;;;0.82;0.20;;;16.80;46.80;;;;;;5091127;28;20048;-48
2020/12/04 07:55:18;;;;;;;0.55;0.20;;;16.80;46.80;;;;;;5087390;28;20130;-49
2020/12/04 07:57:51;;;;;;;0.98;0.20;;;16.80;46.70;;;;;;5080711;28;20051;-47
2020/12/04 08:00:18;;;;;;;1.42;0.15;;;16.80;46.70;;;;;;5089297;28;20048;-48
2020/12/04 08:02:46;;;;;;;0.50;0.20;;;16.70;46.70;;;;;;5091494;28;20048;-48
2020/12/04 08:05:19;;;;;;;1.45;0.30;;;16.70;46.60;;;;;;5092571;28;20048;-47
2020/12/04 08:07:51;;;;;;;0.95;0.20;;;16.80;46.60;;;;;;5091975;28;20048;-48
2020/12/04 08:10:18;;;;;;;1.23;0.30;;;16.80;46.80;;;;;;5090655;28;20052;-48
2020/12/04 08:12:49;;;;;;;0.80;0.20;;;16.70;46.70;;;;;;5093021;28;20036;-47
2020/12/04 08:15:17;;;;;;;0.30;0.20;;;16.70;46.60;;;;;;5092653;28;20044;-49
2020/12/04 08:17:45;;;;;;;0.95;0.20;;;16.70;46.60;;;;;;5092276;28;20089;-49
2020/12/04 08:20:16;;;;;;;1.63;0.20;;;16.70;46.80;;;;;;5090869;28;20040;-52
2020/12/04 08:22:49;;;;;;;4.07;0.20;;;16.70;46.80;;;;;;5098944;28;20574;-47
2020/12/04 08:25:23;;;;;;;0.98;0.10;;;16.70;46.70;;;;;;5099316;28;20050;-48
2020/12/04 08:27:50;;;;;;;0.93;0.10;;;16.70;46.60;;;;;;5100549;28;20059;-48
2020/12/04 08:30:18;;;;;;;0.30;0.10;;;16.70;46.60;;;;;;5100331;28;20088;-52
2020/12/04 08:32:46;;;;;;;1.70;0.30;;;16.70;46.70;;;;;;5089831;28;20037;-49
2020/12/04 08:35:18;;;;;;;7.53;2.47;;;16.70;46.80;;;;;;5087538;28;20047;-48
2020/12/04 08:37:46;;;;;;;1.05;0.20;;;16.70;47.10;;;;;;5090863;28;20044;-47
2020/12/04 08:40:22;;;;;;;3.38;0.15;;;16.70;47.10;;;;;;5089375;28;20134;-48
2020/12/04 08:42:49;;;;;;;0.30;0.10;;;16.70;46.90;;;;;;5100698;28;20504;-48
2020/12/04 08:45:16;;;;;;;3.67;0.10;;;16.70;47.00;;;;;;5091331;28;20249;-48
2020/12/04 08:47:44;;;;;;;0.65;0.10;;;16.70;46.90;;;;;;5087735;28;20162;-48
2020/12/04 08:50:14;;;;;;;2.78;0.10;;;16.70;46.90;;;;;;5084202;28;20044;-48
2020/12/04 08:52:47;;;;;;;2.63;0.20;;;16.70;46.70;;;;;;5090109;28;20052;-48
2020/12/04 08:55:16;;;;;;;2.63;0.77;;;16.70;46.60;;;;;;5090180;28;20060;-48
2020/12/04 08:57:44;;;;;;;0.98;0.10;;;16.70;46.70;;;;;;5079120;28;20055;-50
2020/12/04 09:00:14;;;;;;;1.45;0.10;;;16.70;46.80;;;;;;5092151;28;20044;-48
2020/12/04 09:02:41;;;;;;;1.60;0.50;;;16.70;46.80;;;;;;5089502;28;20032;-49
2020/12/04 09:05:10;;;;;;;4.18;0.20;;;16.70;46.70;;;;;;5088875;28;20464;-49
2020/12/04 09:07:38;;;;;;;1.65;0.30;;;16.70;46.90;;;;;;5079830;28;20373;-48
2020/12/04 09:10:07;;;;;;;2.15;0.20;;;16.70;46.90;;;;;;5091092;28;20523;-48
2020/12/04 09:12:35;;;;;;;1.70;0.10;;;16.70;47.00;;;;;;5084827;28;20051;-47
2020/12/04 09:15:04;;;;;;;2.08;0.05;;;16.70;46.90;;;;;;5083768;28;20056;-50
2020/12/04 09:17:31;;;;;;;1.27;0.10;;;16.80;46.70;;;;;;5082039;28;20750;-48
2020/12/04 09:19:58;;;;;;;3.08;0.30;;;16.80;46.90;;;;;;5075394;28;20055;-49
2020/12/04 09:22:25;;;;;;;8.23;0.45;;;16.80;46.80;;;;;;5088538;28;20044;-49
2020/12/04 09:24:52;;;;;;;1.55;0.13;;;16.80;46.70;;;;;;5076733;28;20544;-51
2020/12/04 09:27:19;;;;;;;1.08;0.15;;;16.80;46.70;;;;;;5087048;28;20043;-50
2020/12/04 09:29:45;;;;;;;2.20;0.35;;;16.80;46.80;;;;;;5092354;28;20115;-48
2020/12/04 09:32:14;;;;;;;0.55;0.10;;;16.80;46.90;;;;;;5092690;28;20508;-50
2020/12/04 09:34:43;;;;;;;0.85;0.10;;;16.80;46.80;;;;;;5088773;28;20704;-49
2020/12/04 09:37:18;;;;;;;1.08;0.00;;;16.80;46.70;;;;;;5075095;28;20052;-50
2020/12/04 09:39:46;;;;;;;0.43;0.10;;;16.90;46.50;;;;;;5082454;28;20054;-48
2020/12/04 09:42:14;;;;;;;0.60;0.10;;;16.90;46.40;;;;;;5088546;28;21425;-49
2020/12/04 09:44:43;;;;;;;1.85;0.20;;;16.90;46.50;;;;;;5085906;28;20101;-48
2020/12/04 09:47:10;;;;;;;6.72;0.20;;;16.90;46.50;;;;;;5086581;28;20138;-48
2020/12/04 09:49:38;;;;;;;4.57;0.30;;;16.90;46.40;;;;;;5088343;28;20044;-48
2020/12/04 09:52:06;;;;;;;1.45;0.20;;;17.00;46.30;;;;;;5090361;28;20052;-53
2020/12/04 09:54:36;;;;;;;3.42;0.10;;;17.00;46.40;;;;;;5086400;28;20133;-53
2020/12/04 09:57:05;;;;;;;4.03;0.15;;;17.00;46.30;;;;;;5090457;28;20047;-53
2020/12/04 09:59:32;;;;;;;0.77;0.10;;;17.10;46.20;;;;;;5086465;28;20071;-55
2020/12/04 10:01:59;;;;;;;3.53;0.10;;;17.10;46.10;;;;;;5090443;28;20058;-50
2020/12/04 10:04:26;;;;;;;1.75;0.10;;;17.20;46.10;;;;;;5086687;28;20051;-51
2020/12/04 10:06:54;;;;;;;0.77;0.10;;;17.20;46.10;;;;;;5086775;28;20051;-48
2020/12/04 10:09:22;;;;;;;5.00;0.10;;;17.20;46.10;;;;;;5079802;28;20048;-51
2020/12/04 10:11:49;;;;;;;2.47;0.10;;;17.30;45.90;;;;;;5082364;28;20692;-48
2020/12/04 10:14:17;;;;;;;2.55;0.47;;;17.30;45.80;;;;;;5090106;28;20036;-52
2020/12/04 10:16:45;;;;;;;1.25;0.30;;;17.30;45.60;;;;;;5088898;28;20059;-48
2020/12/04 10:19:13;;;;;;;2.28;0.10;;;17.40;45.40;;;;;;5073430;28;20049;-50
2020/12/04 10:21:40;;;;;;;3.47;0.10;;;17.50;45.20;;;;;;5085736;28;20040;-48
2020/12/04 10:24:08;;;;;;;5.25;0.52;;;17.50;45.00;;;;;;5078796;28;20056;-48
2020/12/04 10:26:38;;;;;;;0.30;0.10;;;17.50;45.40;;;;;;5079197;28;20048;-49
2020/12/04 10:29:04;;;;;;;0.85;0.10;;;17.50;44.60;;;;;;5090509;28;20065;-50
2020/12/04 10:31:31;;;;;;;1.38;0.00;;;17.60;44.60;;;;;;5087447;28;20051;-49
2020/12/04 10:33:58;;;;;;;3.35;0.00;;;17.60;44.30;;;;;;5076063;28;20736;-52
2020/12/04 10:36:26;;;;;;;0.80;0.00;;;17.60;44.20;;;;;;5088535;28;20072;-50
2020/12/04 10:38:53;;;;;;;1.50;0.00;;;17.60;44.10;;;;;;5097356;28;20048;-51
2020/12/04 10:41:20;;;;;;;1.48;0.03;;;17.70;44.00;;;;;;5082256;28;20045;-49
2020/12/04 10:43:48;;;;;;;1.80;0.05;;;17.70;44.00;;;;;;5083967;28;20036;-48
2020/12/04 10:46:14;;;;;;;0.98;0.22;;;17.70;43.90;;;;;;5088107;28;20123;-50
2020/12/04 10:48:41;;;;;;;0.75;0.00;;;17.70;43.80;;;;;;5091723;28;20652;-56
2020/12/04 10:51:08;;;;;;;0.85;0.10;;;17.70;43.80;;;;;;5090017;28;20054;-50
2020/12/04 10:53:35;;;;;;;1.58;0.00;;;17.70;43.80;;;;;;5089556;28;20044;-49
2020/12/04 10:56:02;;;;;;;0.73;0.00;;;17.80;43.90;;;;;;5092908;28;20047;-50
2020/12/04 10:58:30;;;;;;;3.35;0.15;;;17.80;43.80;;;;;;5091193;28;20081;-51
2020/12/04 11:00:57;;;;;;;1.02;0.00;;;17.80;43.70;;;;;;5080971;28;20047;-53
2020/12/04 11:03:33;;;;;;;2.05;0.10;;;17.80;43.80;;;;;;5084436;28;20136;-49
2020/12/04 11:05:59;;;;;;;1.00;0.22;;;17.80;43.90;;;;;;5087042;28;20471;-52
2020/12/04 11:08:26;;;;;;;1.23;0.10;;;17.90;44.40;;;;;;5096327;28;20488;-50
2020/12/04 11:10:53;;;;;;;0.73;0.20;;;17.90;43.80;;;;;;5105117;28;20730;-52
2020/12/04 11:13:20;;;;;;;1.17;0.00;;;17.90;43.90;;;;;;5094632;28;20040;-50
2020/12/04 11:15:48;;;;;;;2.85;0.10;;;17.90;43.90;;;;;;5092134;28;20043;-50
2020/12/04 11:18:14;;;;;;;0.90;0.00;;;17.90;44.00;;;;;;5091496;28;20040;-52
2020/12/04 11:20:41;;;;;;;2.60;0.10;;;17.90;43.90;;;;;;5089076;28;20526;-50
2020/12/04 11:23:08;;;;;;;0.55;0.00;;;18.00;44.00;;;;;;5091866;28;20109;-51
2020/12/04 11:25:35;;;;;;;1.75;0.00;;;18.00;44.00;;;;;;5101496;28;20051;-51
2020/12/04 11:28:02;;;;;;;0.52;0.08;;;18.00;44.10;;;;;;5080328;28;20056;-49
2020/12/04 11:30:29;;;;;;;1.98;0.10;;;18.00;44.20;;;;;;5091438;28;20122;-50
2020/12/04 11:32:56;;;;;;;6.32;0.10;;;18.10;44.20;;;;;;5092469;28;20052;-48
2020/12/04 11:35:23;;;;;;;2.85;0.00;;;18.10;44.30;;;;;;5091222;28;20046;-53
2020/12/04 11:37:50;;;;;;;2.63;0.00;;;18.10;44.30;;;;;;5090749;28;20082;-48
2020/12/04 11:40:18;;;;;;;0.57;0.10;;;18.10;44.20;;;;;;5089023;28;20082;-50
2020/12/04 11:42:46;;;;;;;1.80;0.30;;;18.10;44.20;;;;;;5085472;28;20052;-49
2020/12/04 11:45:15;;;;;;;3.78;0.10;;;18.10;44.60;;;;;;5085560;28;20047;-48
2020/12/04 11:47:43;;;;;;;1.20;0.03;;;18.10;43.90;;;;;;5093015;28;20048;-47
2020/12/04 11:50:13;;;;;;;2.90;0.03;;;18.10;43.90;;;;;;5093072;28;20100;-48
2020/12/04 11:52:39;;;;;;;3.40;0.10;;;18.20;43.90;;;;;;5091121;28;20153;-46
2020/12/04 11:55:08;;;;;;;0.10;0.00;;;18.20;43.80;;;;;;5092810;28;20076;-48
2020/12/04 11:57:34;;;;;;;2.58;0.00;;;18.20;43.70;;;;;;5092924;28;20048;-46
2020/12/04 12:00:02;;;;;;;2.05;0.10;;;18.20;43.60;;;;;;5092310;28;20052;-51
2020/12/04 12:02:38;;;;;;;2.53;0.35;;;18.20;43.60;;;;;;5092873;28;20051;-48
2020/12/04 12:05:05;;;;;;;3.53;0.10;;;18.20;43.60;;;;;;5091019;28;20492;-48
2020/12/04 12:07:33;;;;;;;1.27;0.00;;;18.20;43.50;;;;;;5074630;28;20068;-48
2020/12/04 12:09:59;;;;;;;0.90;0.05;;;18.20;43.40;;;;;;5093130;28;20043;-50
2020/12/04 12:12:26;;;;;;;0.50;0.03;;;18.20;43.40;;;;;;5092753;28;20043;-46
2020/12/04 12:14:52;;;;;;;4.03;0.10;;;18.20;43.40;;;;;;5092513;28;20702;-48
2020/12/04 12:17:19;;;;;;;0.95;0.20;;;18.30;43.40;;;;;;5091266;28;20040;-50
2020/12/04 12:19:46;;;;;;;2.08;0.25;;;18.20;43.40;;;;;;5075289;28;20054;-50
2020/12/04 12:22:13;;;;;;;0.38;0.00;;;18.20;43.30;;;;;;5091642;28;20048;-47
2020/12/04 12:24:41;;;;;;;0.38;0.20;;;18.30;43.30;;;;;;5080555;28;20751;-47
2020/12/04 12:27:09;;;;;;;0.95;0.52;;;18.30;43.20;;;;;;5087071;28;20044;-47
2020/12/04 12:29:36;;;;;;;0.57;0.00;;;18.30;43.90;;;;;;5092145;28;20093;-46
2020/12/04 12:32:04;;;;;;;2.60;0.10;;;18.30;43.40;;;;;;5092443;28;20048;-47
2020/12/04 12:37:13;;;;;;;2.90;0.10;;;18.30;43.50;;;;;;5075517;28;20054;-46
2020/12/04 12:39:41;;;;;;;1.73;0.00;;;18.30;43.50;;;;;;5091037;28;20135;-47
2020/12/04 12:42:08;;;;;;;1.55;0.13;;;18.40;43.40;;;;;;5092029;28;20093;-46
2020/12/04 12:44:35;;;;;;;1.75;0.20;;;18.40;43.50;;;;;;5089462;28;20098;-46
2020/12/04 12:47:02;;;;;;;0.38;0.03;;;18.40;43.40;;;;;;5077526;28;20046;-47
2020/12/04 12:49:29;;;;;;;3.70;0.10;;;18.40;43.40;;;;;;5089790;28;20046;-48
2020/12/04 12:51:57;;;;;;;0.75;0.10;;;18.40;43.30;;;;;;5091502;28;20083;-46
2020/12/04 12:54:24;;;;;;;2.92;0.00;;;18.40;43.20;;;;;;5091790;28;20135;-48